Kapingamarangi, Pohnpei

6:25 PM +10 on August 19, 2019 (GMT +1000)
Kapingamarangi Atol | | Change Station

Elev 10 ft 1.08 °N, 154.77 °E | Updated 2 hours ago

Partly Cloudy
Partly Cloudy
87 °F
Feels Like 87 °F
N
6
Wind Variable Wind from WNW
Gusts mph

Today
High -- | Low -- °F
--% Chance of Precip.
Yesterday
High -- | Low -- °F
Precip. -- in
Pressure 29.74 in
Visibility 15.0 miles
Clouds Scattered Clouds 1870 ft
Dew Point 82 °F
Humidity 81%
Rainfall 0.00 in
Snow Depth Not available.
5:40 AM 5:48 PM
Waning Gibbous, 87% visible
AAXX 19064 91434 11474 33005 10306 20278 30070 40071 5//// 60011 70282 83200 333 567// 70018 83819 555 91906 91425 32474 82507 10283 20267 30091 40092 5//// 86280 333 5666/ 70000 86817 86362 555 91906 91350 32474 32905 10317 20273 30084 40085 5//// 82101 333 567/9 70107 82818 555 91906 91353 32474 82805 10317 20259 30086 40087 5//// 84208 333 566/9 70000 84818 85280 555 91906
Pressure 29.74 in
Visibility 15.0 miles
Clouds Scattered Clouds 1870 ft
Dew Point 82 °F
Humidity 81%
Rainfall 0.00 in
Snow Depth Not available.
5:40 AM 5:48 PM
Waning Gibbous, 87% visible
AAXX 19064 91434 11474 33005 10306 20278 30070 40071 5//// 60011 70282 83200 333 567// 70018 83819 555 91906 91425 32474 82507 10283 20267 30091 40092 5//// 86280 333 5666/ 70000 86817 86362 555 91906 91350 32474 32905 10317 20273 30084 40085 5//// 82101 333 567/9 70107 82818 555 91906 91353 32474 82805 10317 20259 30086 40087 5//// 84208 333 566/9 70000 84818 85280 555 91906

Get Severe Weather Alerts

Thanks for signing up!

Be on the lookout for a verification email in your inbox.

You'll start receiving the daily forecast at 6 AM.

×

10-Day Weather Forecast

No radar image for this location.
×

Almanac

Astronomy

Aug. 19, 2019 Rise Set
Actual Time
Civil Twilight
Nautical Twilight
Astronomical Twilight
Moon
Length of Visible Light
Length of Day
Tomorrow will be .
, % of the Moon is Illuminated

Today's Extremes

Country Highs Country Lows

Community

WunderPhotos

Category 6

Welcome to Category 6. This is the collective home for Weather Underground's featured writeups by Dr. Jeff Masters (right), Bob Henson (left), Chris Burt, and other regular contributors.

Nearby

Air Quality

  Air Quality AQ Index Pollutant
Not available.

Snow Depth

Station Depth Elevation

Earthquake Activity

City Distance Mag. Time & Date
Minimum magnitude displayed is 2.5.

Coastal Water Temperatures

Place Temperature

Stations

Nearby Weather Stations

Station Location Temp. Windchill Dew Point Humidity Wind Precip. Elev Updated Type